Time;durP1;ratioP1;P1;durP2;ratioP2;P2;SDS_P1;SDS_P2;PMS_P1;PMS_P2;Temp;Humidity;BMP_temperature;BMP_pressure;BME280_temperature;BME280_humidity;BME280_pressure;Samples;Min_cycle;Max_cycle;Signal;HPM_P1;HPM_P2
2021/07/30 00:02:22;;;;;;;;;23.80;23.80;;;;;26.50;85.43;100577.75;5156974;27;8809;-74
2021/07/30 00:05:18;;;;;;;;;20.60;20.60;;;;;26.29;88.49;100581.88;5156893;27;8856;-74
2021/07/30 00:08:13;;;;;;;;;21.60;21.60;;;;;26.21;90.23;100568.31;5156981;27;8829;-74
2021/07/30 00:11:09;;;;;;;;;21.80;21.80;;;;;26.06;90.66;100559.34;5138498;27;8823;-74
2021/07/30 00:14:05;;;;;;;;;20.80;20.80;;;;;26.20;89.62;100586.56;5135937;27;8815;-75
2021/07/30 00:17:00;;;;;;;;;21.00;20.40;;;;;26.01;90.66;100585.41;5136832;27;9576;-75
2021/07/30 00:19:56;;;;;;;;;21.00;20.40;;;;;26.07;89.96;100586.47;5136483;27;8816;-74
2021/07/30 00:22:52;;;;;;;;;22.20;21.60;;;;;26.16;90.60;100568.88;5136335;27;8831;-75
2021/07/30 00:25:47;;;;;;;;;20.60;20.60;;;;;26.14;90.76;100585.47;5137845;27;9755;-75
2021/07/30 00:28:43;;;;;;;;;21.80;21.80;;;;;25.99;94.04;100583.00;5135906;27;8823;-75
2021/07/30 00:31:39;;;;;;;;;21.00;21.00;;;;;26.18;92.04;100587.00;5136877;27;8839;-74
2021/07/30 00:34:34;;;;;;;;;24.60;24.60;;;;;26.20;90.06;100575.22;5136287;27;8857;-75
2021/07/30 00:37:30;;;;;;;;;24.40;24.40;;;;;26.23;90.65;100578.00;5135546;27;8819;-74
2021/07/30 00:40:26;;;;;;;;;28.40;27.40;;;;;26.11;92.80;100575.84;5151979;27;8811;-74
2021/07/30 00:43:21;;;;;;;;;21.20;21.20;;;;;26.19;91.86;100563.09;5140379;27;8833;-74
2021/07/30 00:46:19;;;;;;;;;21.60;21.60;;;;;26.32;90.21;100557.53;5156097;27;8821;-74
2021/07/30 00:49:18;;;;;;;;;28.20;27.60;;;;;25.85;95.80;100551.38;5135339;27;8907;-74
2021/07/30 00:52:21;;;;;;;;;21.60;21.40;;;;;26.01;93.75;100557.84;5135286;27;8906;-75
2021/07/30 00:55:20;;;;;;;;;21.00;21.00;;;;;25.99;93.68;100551.84;5122341;27;8855;-75
2021/07/30 00:58:20;;;;;;;;;15.00;15.00;;;;;25.92;95.68;100559.72;5135365;27;9687;-74
2021/07/30 01:01:24;;;;;;;;;25.40;25.40;;;;;25.98;94.03;100564.38;5135858;27;9738;-74
2021/07/30 01:04:24;;;;;;;;;24.80;24.80;;;;;26.15;92.96;100570.06;5121083;27;8835;-74
2021/07/30 01:07:26;;;;;;;;;22.60;22.60;;;;;26.07;93.65;100558.13;5135228;27;8835;-74
2021/07/30 01:10:35;;;;;;;;;22.00;22.00;;;;;26.05;93.80;100552.09;5135064;27;8969;-74
2021/07/30 01:13:32;;;;;;;;;21.60;21.40;;;;;25.97;94.87;100542.97;5135001;27;8927;-75
2021/07/30 01:16:28;;;;;;;;;18.40;18.40;;;;;26.17;92.09;100551.41;5121256;27;8905;-74
2021/07/30 01:19:25;;;;;;;;;17.80;17.80;;;;;26.19;93.01;100543.25;5134727;27;8827;-74
2021/07/30 01:22:35;;;;;;;;;25.80;24.20;;;;;26.22;92.39;100550.06;5134825;27;8834;-74
2021/07/30 01:25:31;;;;;;;;;22.80;22.80;;;;;26.20;92.28;100552.56;5134763;27;8822;-74
2021/07/30 01:28:34;;;;;;;;;20.80;20.00;;;;;26.28;91.23;100542.63;5121079;27;8827;-74
2021/07/30 01:31:33;;;;;;;;;26.00;26.00;;;;;25.97;94.96;100542.97;5135076;27;9766;-74
2021/07/30 01:34:29;;;;;;;;;26.80;26.80;;;;;26.09;93.63;100535.03;5134573;27;8831;-75
2021/07/30 01:37:26;;;;;;;;;25.80;25.20;;;;;26.02;94.48;100541.66;5120746;27;8859;-74
2021/07/30 01:40:21;;;;;;;;;23.80;23.80;;;;;26.11;92.10;100533.31;5134456;27;9706;-74
2021/07/30 01:43:17;;;;;;;;;27.40;27.40;;;;;25.98;93.92;100538.88;5134596;27;8849;-75
2021/07/30 01:46:12;;;;;;;;;25.40;25.40;;;;;26.22;92.40;100547.22;5134275;27;8846;-74
2021/07/30 01:49:08;;;;;;;;;26.80;26.80;;;;;26.03;93.17;100546.06;5134508;27;8934;-75
2021/07/30 01:52:04;;;;;;;;;25.80;25.80;;;;;26.10;93.27;100562.13;5134198;27;8962;-74
2021/07/30 01:54:59;;;;;;;;;29.00;28.80;;;;;26.09;93.79;100574.69;5134316;27;8827;-74
2021/07/30 01:57:55;;;;;;;;;29.80;29.60;;;;;26.11;93.70;100572.22;5134667;27;8953;-74
2021/07/30 02:00:51;;;;;;;;;27.80;27.40;;;;;26.11;93.26;100575.84;5121543;27;8850;-75
2021/07/30 02:03:48;;;;;;;;;25.60;25.60;;;;;26.28;91.25;100585.94;5134086;27;8834;-74
2021/07/30 02:06:44;;;;;;;;;25.00;25.00;;;;;26.28;91.49;100585.94;5133893;27;8808;-75
2021/07/30 02:09:40;;;;;;;;;26.80;26.80;;;;;26.13;94.34;100581.06;5133652;27;8815;-75
2021/07/30 02:14:15;;;;;;;;;27.80;27.80;;;;;26.22;92.78;100570.69;5133756;27;8819;-75
2021/07/30 02:15:51;;;;;;;;;28.60;28.40;;;;;26.16;94.53;100571.69;5132660;27;8815;-74
2021/07/30 02:18:48;;;;;;;;;27.40;27.40;;;;;26.13;94.99;100564.06;5133778;27;8842;-75
2021/07/30 02:21:48;;;;;;;;;30.20;29.00;;;;;26.09;95.38;100561.31;5143186;27;8851;-74
2021/07/30 02:24:44;;;;;;;;;30.80;29.80;;;;;26.17;93.48;100573.28;5140108;27;8947;-74
2021/07/30 02:27:39;;;;;;;;;29.60;29.20;;;;;26.10;94.09;100576.28;5154350;27;8845;-74
2021/07/30 02:30:35;;;;;;;;;31.20;29.40;;;;;26.28;91.66;100583.13;5146032;27;8815;-74
2021/07/30 02:33:30;;;;;;;;;30.60;29.80;;;;;26.14;93.91;100579.81;5133460;27;8815;-74
2021/07/30 02:36:26;;;;;;;;;31.00;30.00;;;;;26.15;93.43;100568.06;5133298;27;8839;-74
2021/07/30 02:39:22;;;;;;;;;29.60;29.60;;;;;26.11;94.34;100580.72;5133217;27;8920;-74
2021/07/30 02:42:17;;;;;;;;;31.00;29.60;;;;;26.06;94.48;100579.97;5133278;27;8827;-73
2021/07/30 02:45:13;;;;;;;;;29.75;29.50;;;;;26.17;93.44;100587.47;5133213;27;8835;-73
2021/07/30 02:48:09;;;;;;;;;30.20;29.60;;;;;26.00;95.65;100595.13;5133209;27;8885;-73
2021/07/30 02:51:04;;;;;;;;;31.00;29.40;;;;;26.27;91.85;100592.88;5133123;27;8823;-74
2021/07/30 02:53:59;;;;;;;;;24.00;24.00;;;;;26.41;91.03;100597.44;5133099;27;8910;-73
2021/07/30 02:56:55;;;;;;;;;31.25;30.25;;;;;26.34;91.39;100589.84;5119539;27;8877;-75
2021/07/30 02:59:51;;;;;;;;;36.25;32.75;;;;;26.37;92.11;100579.66;5150932;27;8821;-74
2021/07/30 03:02:46;;;;;;;;;34.00;31.75;;;;;26.20;93.78;100584.53;5153976;27;8851;-74
2021/07/30 03:05:42;;;;;;;;;35.50;32.75;;;;;26.09;94.24;100595.31;5153556;27;9644;-74
2021/07/30 03:08:37;;;;;;;;;32.75;31.00;;;;;25.98;95.33;100589.88;5153790;27;8868;-74
2021/07/30 03:11:34;;;;;;;;;35.00;32.50;;;;;26.23;91.66;100586.50;5148072;27;8848;-74
2021/07/30 03:14:30;;;;;;;;;32.25;31.00;;;;;26.23;93.13;100597.03;5146857;27;8901;-74
2021/07/30 03:17:25;;;;;;;;;35.00;31.40;;;;;26.21;92.96;100605.97;5139777;27;8844;-74
2021/07/30 03:20:21;;;;;;;;;38.25;34.50;;;;;25.96;94.21;100611.41;5153437;27;8813;-74
2021/07/30 03:23:16;;;;;;;;;36.00;33.00;;;;;26.19;92.87;100594.28;5154579;27;8833;-74
2021/07/30 03:26:12;;;;;;;;;35.75;32.25;;;;;26.13;93.51;100595.22;5140315;27;8835;-74
2021/07/30 03:29:07;;;;;;;;;34.20;32.00;;;;;26.25;92.44;100588.88;5152775;27;8821;-75
2021/07/30 03:32:03;;;;;;;;;31.50;30.25;;;;;26.34;92.48;100587.03;5157822;27;8825;-75
2021/07/30 03:34:59;;;;;;;;;35.50;33.00;;;;;26.44;91.55;100590.06;5157560;27;8872;-75
2021/07/30 03:37:54;;;;;;;;;31.20;30.20;;;;;26.54;89.10;100592.66;5157988;27;8903;-75
2021/07/30 03:40:50;;;;;;;;;31.40;30.40;;;;;26.58;90.08;100592.56;5157995;27;8844;-75
2021/07/30 03:43:46;;;;;;;;;32.20;30.60;;;;;26.69;88.69;100587.41;5148630;27;8839;-75
2021/07/30 03:46:42;;;;;;;;;33.60;31.60;;;;;26.51;91.13;100598.41;5159931;27;9631;-75
2021/07/30 03:49:38;;;;;;;;;31.20;30.00;;;;;26.42;92.04;100587.69;5160082;27;8829;-76
2021/07/30 03:52:34;;;;;;;;;33.40;31.60;;;;;26.41;92.41;100588.91;5158877;27;8833;-75
2021/07/30 03:55:31;;;;;;;;;31.20;30.40;;;;;26.47;91.89;100584.31;5157979;27;8841;-75
2021/07/30 03:58:28;;;;;;;;;33.60;30.80;;;;;26.50;91.58;100574.13;5151112;27;8858;-75
2021/07/30 04:01:24;;;;;;;;;35.80;32.80;;;;;26.38;93.35;100594.63;5138698;27;8815;-74
2021/07/30 04:04:21;;;;;;;;;29.60;29.20;;;;;26.28;94.04;100597.28;5143299;27;8829;-75
2021/07/30 04:07:16;;;;;;;;;33.00;31.80;;;;;26.15;95.44;100602.06;5151077;27;8829;-75
2021/07/30 04:10:12;;;;;;;;;35.25;32.50;;;;;26.22;93.58;100598.25;5143607;27;8862;-74
2021/07/30 04:13:08;;;;;;;;;29.20;29.20;;;;;26.31;92.15;100596.44;5138732;27;8838;-75
2021/07/30 04:16:05;;;;;;;;;33.00;31.80;;;;;26.41;91.17;100605.94;5149989;27;8817;-73
2021/07/30 04:19:02;;;;;;;;;33.40;31.60;;;;;26.51;89.91;100606.91;5142732;27;9593;-74
2021/07/30 04:21:58;;;;;;;;;31.60;29.80;;;;;26.42;89.60;100607.53;5148548;27;8813;-74
2021/07/30 04:24:53;;;;;;;;;34.25;32.00;;;;;26.41;89.35;100624.97;5135866;27;8824;-75
2021/07/30 04:27:49;;;;;;;;;35.50;32.50;;;;;26.31;90.16;100618.31;5142930;27;8817;-75
2021/07/30 04:30:44;;;;;;;;;34.40;32.20;;;;;26.45;89.19;100617.97;5140714;27;8817;-74
2021/07/30 04:33:40;;;;;;;;;35.25;32.75;;;;;26.49;88.56;100610.19;5149022;27;8811;-73
2021/07/30 04:36:35;;;;;;;;;33.75;31.75;;;;;26.36;88.79;100609.25;5137423;27;8842;-74
2021/07/30 04:39:03;;;;;;;;;39.00;34.00;;;;;26.30;88.66;100609.00;5136198;27;8835;-73
2021/07/30 04:41:30;;;;;;;;;31.00;30.00;;;;;26.63;86.77;100606.22;5138153;27;8869;-73
2021/07/30 04:43:58;;;;;;;;;36.00;32.50;;;;;26.41;85.27;100605.94;5136682;27;8827;-72
2021/07/30 04:46:26;;;;;;;;;33.75;31.75;;;;;26.54;85.35;100594.69;5157160;27;8863;-72
2021/07/30 04:49:03;;;;;;;;;35.20;32.40;;;;;26.53;83.85;100607.25;5157333;27;8825;-73
2021/07/30 04:52:02;;;;;;;;;34.75;32.25;;;;;26.56;86.13;100609.22;5156113;27;8848;-73
2021/07/30 04:54:57;;;;;;;;;32.50;31.00;;;;;26.64;84.25;100615.50;5142166;27;8852;-73
2021/07/30 04:57:53;;;;;;;;;32.00;31.00;;;;;26.75;83.36;100618.88;5142914;27;8844;-73
2021/07/30 05:00:49;;;;;;;;;39.25;34.50;;;;;26.93;82.16;100635.44;5155728;27;9590;-73
2021/07/30 05:03:47;;;;;;;;;39.75;35.00;;;;;26.66;81.48;100633.69;5156048;27;8852;-73
2021/07/30 05:06:43;;;;;;;;;38.75;34.75;;;;;26.78;81.93;100655.66;5155550;27;8855;-74
2021/07/30 05:09:39;;;;;;;;;38.50;34.50;;;;;26.89;81.38;100661.84;5155644;27;8873;-73
2021/07/30 05:12:34;;;;;;;;;37.00;33.75;;;;;27.02;81.48;100678.97;5155725;27;9605;-74
2021/07/30 05:15:30;;;;;;;;;32.25;31.00;;;;;27.00;82.58;100678.63;5155507;27;8917;-73
2021/07/30 05:18:25;;;;;;;;;42.50;36.50;;;;;27.07;81.67;100687.00;5153792;27;8860;-74
2021/07/30 05:21:21;;;;;;;;;44.50;38.25;;;;;27.01;82.48;100679.44;5155406;27;8833;-73
2021/07/30 05:23:49;;;;;;;;;46.25;39.50;;;;;27.21;81.46;100688.66;5156704;27;8884;-73
2021/07/30 05:26:17;;;;;;;;;40.75;35.75;;;;;26.96;81.22;100691.31;5156725;27;8841;-72
2021/07/30 05:29:12;;;;;;;;;38.50;34.50;;;;;27.21;80.26;100702.84;5153350;27;8920;-73
2021/07/30 05:31:40;;;;;;;;;42.00;36.75;;;;;27.27;79.52;100689.72;5156501;27;8845;-74
2021/07/30 05:34:35;;;;;;;;;40.00;35.20;;;;;27.27;78.44;100703.91;5155139;27;8821;-74
2021/07/30 05:37:31;;;;;;;;;40.40;35.00;;;;;27.01;79.12;100694.41;5139582;27;8819;-74
2021/07/30 05:40:26;;;;;;;;;41.00;36.00;;;;;27.44;78.11;100708.31;5134124;27;8823;-74
2021/07/30 05:43:22;;;;;;;;;40.40;34.60;;;;;27.80;76.84;100713.03;5136007;27;8831;-76
2021/07/30 05:45:50;;;;;;;;;30.20;29.40;;;;;27.84;71.21;100707.28;5135891;27;9574;-78
2021/07/30 05:48:47;;;;;;;;;30.00;29.00;;;;;27.67;69.91;100715.03;5135835;27;8928;-73
2021/07/30 05:51:42;;;;;;;;;32.20;28.00;;;;;27.73;71.65;100724.59;5142631;27;8835;-73
2021/07/30 05:54:38;;;;;;;;;28.40;28.40;;;;;27.80;68.71;100723.63;5134790;27;8870;-73
2021/07/30 05:57:05;;;;;;;;;24.00;23.20;;;;;27.95;67.78;100728.44;5116643;27;8843;-73
2021/07/30 06:00:03;;;;;;;;;24.60;24.60;;;;;27.89;65.49;100740.81;5133798;27;8849;-74
2021/07/30 06:02:59;;;;;;;;;12.80;12.80;;;;;28.09;62.78;100730.06;5134202;27;8973;-73
2021/07/30 06:05:54;;;;;;;;;25.00;24.60;;;;;27.86;63.03;100716.13;5133411;27;8912;-77
2021/07/30 06:08:50;;;;;;;;;25.60;25.60;;;;;27.83;63.47;100719.84;5133668;27;8827;-77
2021/07/30 06:11:46;;;;;;;;;26.20;26.20;;;;;27.63;64.80;100732.16;5133875;27;8831;-76
2021/07/30 06:14:41;;;;;;;;;18.60;18.60;;;;;27.67;64.34;100730.03;5119880;27;8831;-77
2021/07/30 06:17:11;;;;;;;;;23.00;22.60;;;;;27.67;65.89;100726.38;5116719;27;8855;-77
2021/07/30 06:20:08;;;;;;;;;20.00;20.00;;;;;27.68;66.50;100736.50;5133473;27;8965;-76
2021/07/30 06:23:04;;;;;;;;;22.40;22.40;;;;;27.20;67.86;100735.31;5133555;27;8842;-75
2021/07/30 06:26:00;;;;;;;;;23.40;23.40;;;;;26.73;68.84;100731.97;5133360;27;8859;-77
2021/07/30 06:28:55;;;;;;;;;19.40;19.40;;;;;26.69;69.32;100734.91;5133327;27;8842;-74
2021/07/30 06:31:51;;;;;;;;;19.40;19.40;;;;;26.42;69.98;100732.28;5133386;27;8835;-79
2021/07/30 06:34:46;;;;;;;;;21.20;20.20;;;;;26.60;70.21;100731.88;5134689;27;8839;-78
2021/07/30 06:37:16;;;;;;;;;20.20;20.20;;;;;26.60;69.86;100737.53;5145955;27;9576;-78
2021/07/30 06:40:12;;;;;;;;;6.40;6.40;;;;;25.97;70.12;100735.63;5142041;27;8879;-78
2021/07/30 06:42:41;;;;;;;;;19.20;19.20;;;;;25.88;71.18;100752.41;5121932;27;8865;-82
2021/07/30 06:45:37;;;;;;;;;20.80;20.80;;;;;25.69;72.44;100756.81;5154002;27;8968;-79
2021/07/30 06:48:32;;;;;;;;;18.80;18.80;;;;;25.74;73.92;100736.47;5134625;27;8837;-80
2021/07/30 06:51:28;;;;;;;;;17.00;17.00;;;;;25.56;75.71;100741.66;5132820;27;8831;-78
2021/07/30 06:53:56;;;;;;;;;15.80;15.80;;;;;25.41;77.64;100751.66;5134366;27;8839;-77
2021/07/30 06:56:25;;;;;;;;;20.40;20.40;;;;;25.09;79.37;100753.00;5116017;27;8993;-77
2021/07/30 06:58:53;;;;;;;;;23.40;23.40;;;;;25.29;78.66;100740.94;5115948;27;8835;-77
2021/07/30 07:01:44;;;;;;;;;21.40;21.40;;;;;25.39;80.47;100751.28;5119734;27;8823;-77
2021/07/30 07:04:25;;;;;;;;;21.20;21.20;;;;;25.64;80.15;100756.50;5133832;27;8851;-76
2021/07/30 07:07:13;;;;;;;;;23.20;23.20;;;;;25.12;82.96;100752.13;5141030;27;8825;-78
2021/07/30 07:09:40;;;;;;;;;25.60;24.00;;;;;25.28;82.31;100756.31;5154939;27;8856;-79
2021/07/30 07:12:37;;;;;;;;;14.80;14.80;;;;;25.09;83.24;100744.50;5140225;27;8891;-79
2021/07/30 07:15:06;;;;;;;;;17.60;17.60;;;;;25.06;83.27;100748.19;5154758;27;8817;-80
2021/07/30 07:18:02;;;;;;;;;21.80;21.40;;;;;25.20;82.34;100745.13;5153468;27;8933;-79
2021/07/30 07:20:58;;;;;;;;;19.60;19.60;;;;;25.40;81.09;100739.53;5132413;27;8827;-79
2021/07/30 07:23:53;;;;;;;;;18.80;18.80;;;;;25.64;79.44;100739.50;5132631;27;8845;-79
2021/07/30 07:26:49;;;;;;;;;21.00;20.40;;;;;25.66;79.10;100737.81;5119008;27;8819;-78
2021/07/30 07:29:44;;;;;;;;;21.00;21.00;;;;;25.94;78.98;100730.03;5132188;27;8858;-78
2021/07/30 07:32:33;;;;;;;;;21.40;21.20;;;;;26.04;78.86;100724.16;5150894;27;8825;-78
2021/07/30 07:35:28;;;;;;;;;18.40;18.00;;;;;26.09;78.92;100731.34;5129090;27;8843;-81
2021/07/30 07:38:01;;;;;;;;;19.60;19.60;;;;;25.95;79.16;100732.44;5132410;27;9577;-78
2021/07/30 07:40:45;;;;;;;;;19.00;19.00;;;;;25.98;79.69;100745.72;5136973;27;9665;-79
2021/07/30 07:43:41;;;;;;;;;21.20;20.80;;;;;26.08;80.24;100746.75;5136490;27;8860;-78
2021/07/30 07:46:09;;;;;;;;;16.00;16.00;;;;;26.00;79.61;100736.81;5138964;27;8823;-79
2021/07/30 07:49:05;;;;;;;;;17.00;17.00;;;;;25.69;79.15;100751.13;5138161;27;8933;-79
2021/07/30 07:52:00;;;;;;;;;14.00;14.00;;;;;25.59;80.91;100748.47;5149117;27;8859;-79
2021/07/30 07:54:56;;;;;;;;;20.40;20.40;;;;;25.66;79.99;100751.19;5135799;27;8844;-79
2021/07/30 07:57:52;;;;;;;;;20.80;20.40;;;;;25.62;79.83;100754.09;5135106;27;8825;-78
2021/07/30 08:00:47;;;;;;;;;21.00;21.00;;;;;25.82;79.83;100759.00;5124245;27;8826;-79
2021/07/30 08:03:29;;;;;;;;;18.60;18.60;;;;;25.89;79.75;100764.53;5133282;27;8847;-78
2021/07/30 08:06:25;;;;;;;;;19.20;19.20;;;;;25.82;81.06;100762.63;5136303;27;8823;-78
2021/07/30 08:09:20;;;;;;;;;22.80;22.80;;;;;25.75;81.54;100746.56;5137223;27;8857;-77
2021/07/30 08:12:03;;;;;;;;;20.40;19.80;;;;;25.83;80.66;100752.91;5137658;27;8860;-77
2021/07/30 08:14:59;;;;;;;;;24.40;24.00;;;;;25.70;80.93;100755.56;5157295;27;8835;-78
2021/07/30 08:17:55;;;;;;;;;19.80;19.40;;;;;25.81;80.89;100751.75;5142409;27;8871;-78
2021/07/30 08:20:23;;;;;;;;;23.20;23.20;;;;;25.75;80.34;100755.06;5138965;27;8883;-78
2021/07/30 08:23:18;;;;;;;;;20.40;20.40;;;;;25.36;82.23;100741.59;5142911;27;8910;-80
2021/07/30 08:26:14;;;;;;;;;22.20;22.20;;;;;25.70;81.77;100749.91;5136567;27;8842;-79
2021/07/30 08:28:43;;;;;;;;;25.20;23.80;;;;;25.93;81.19;100748.28;5143511;27;8835;-80
2021/07/30 08:31:38;;;;;;;;;22.40;22.40;;;;;25.81;82.39;100744.03;5136508;27;8840;-80
2021/07/30 08:34:38;;;;;;;;;20.80;20.80;;;;;25.74;82.04;100750.66;5122193;27;9568;-80
2021/07/30 08:37:35;;;;;;;;;26.80;26.80;;;;;25.51;82.01;100748.63;5139444;27;8841;-79
2021/07/30 08:40:32;;;;;;;;;26.40;26.40;;;;;25.19;84.09;100745.56;5142432;27;8852;-80
2021/07/30 08:43:34;;;;;;;;;26.60;26.60;;;;;25.60;82.87;100741.59;5134546;27;8923;-78
2021/07/30 08:46:31;;;;;;;;;25.40;25.40;;;;;25.56;83.03;100743.69;5125725;27;8851;-79
2021/07/30 08:49:27;;;;;;;;;21.40;21.40;;;;;25.23;81.56;100744.28;5121555;27;8827;-80
2021/07/30 08:52:35;;;;;;;;;21.00;19.60;;;;;25.66;81.03;100756.84;5134473;27;8823;-79
2021/07/30 08:55:13;;;;;;;;;20.40;20.40;;;;;25.91;81.09;100756.41;5113964;28;8839;-80
2021/07/30 08:57:54;;;;;;;;;20.60;20.60;;;;;25.59;82.95;100760.59;5116227;27;8834;-81
2021/07/30 09:00:23;;;;;;;;;18.00;18.00;;;;;25.50;80.96;100754.72;5115416;28;8858;-80
2021/07/30 09:03:18;;;;;;;;;18.40;18.00;;;;;25.56;81.15;100755.03;5122339;27;8840;-81
2021/07/30 09:06:19;;;;;;;;;18.20;17.80;;;;;25.43;79.59;100758.47;5127575;27;8886;-81
2021/07/30 09:09:15;;;;;;;;;12.60;12.60;;;;;25.17;79.66;100756.50;5128270;27;8849;-79
2021/07/30 09:12:11;;;;;;;;;20.60;20.60;;;;;25.36;80.41;100755.75;5128923;27;8895;-80
2021/07/30 09:15:20;;;;;;;;;22.20;22.20;;;;;25.61;79.49;100755.34;5113525;27;8895;-81
2021/07/30 09:18:24;;;;;;;;;21.60;21.60;;;;;25.80;79.15;100756.63;5114838;28;8835;-80
2021/07/30 09:21:26;;;;;;;;;21.00;20.60;;;;;25.78;78.46;100759.09;5117454;27;8926;-79
2021/07/30 09:24:05;;;;;;;;;21.00;21.00;;;;;25.95;78.77;100757.13;5135917;27;8881;-79
2021/07/30 09:26:46;;;;;;;;;17.80;17.80;;;;;26.02;80.39;100760.63;5122884;27;8854;-79
2021/07/30 09:29:43;;;;;;;;;20.60;19.20;;;;;26.28;78.92;100763.75;5128686;27;8844;-79
2021/07/30 09:32:42;;;;;;;;;16.40;15.80;;;;;26.21;76.69;100776.03;5130092;27;8909;-79
2021/07/30 09:35:57;;;;;;;;;16.60;15.80;;;;;26.14;75.40;100769.69;5125943;27;9567;-80
2021/07/30 09:38:26;;;;;;;;;19.00;19.00;;;;;26.28;75.64;100767.38;5135024;27;8848;-80
2021/07/30 09:41:25;;;;;;;;;27.00;27.00;;;;;26.53;75.82;100771.72;5133045;27;8858;-81
2021/07/30 09:44:04;;;;;;;;;45.50;39.50;;;;;26.58;75.97;100769.19;5134801;27;8828;-81
2021/07/30 09:47:24;;;;;;;;;19.40;19.40;;;;;26.53;75.11;100768.91;5138866;27;8869;-77
2021/07/30 09:50:20;;;;;;;;;21.60;20.20;;;;;26.35;75.15;100766.44;5104096;27;8949;-80
2021/07/30 09:52:52;;;;;;;;;28.20;26.40;;;;;26.52;74.90;100772.97;5129602;27;8832;-81
2021/07/30 09:55:24;;;;;;;;;18.40;18.40;;;;;26.47;74.92;100762.16;5130907;27;9024;-82
2021/07/30 09:57:53;;;;;;;;;20.80;20.80;;;;;26.38;74.95;100764.75;5114027;28;8866;-80
2021/07/30 10:00:20;;;;;;;;;21.20;20.40;;;;;26.55;74.79;100767.25;5121726;27;9284;-80
2021/07/30 10:03:06;;;;;;;;;23.00;22.80;;;;;26.64;74.80;100760.16;5122847;27;8847;-79
2021/07/30 10:05:52;;;;;;;;;18.20;18.20;;;;;26.76;74.56;100760.28;5132603;27;8858;-79
2021/07/30 10:08:47;;;;;;;;;20.40;20.40;;;;;26.81;74.80;100764.63;5122375;27;8843;-83
2021/07/30 10:11:44;;;;;;;;;21.60;21.60;;;;;26.71;76.11;100752.28;5130179;27;8917;-84
2021/07/30 10:14:41;;;;;;;;;23.60;23.60;;;;;26.52;75.31;100753.91;5138000;27;8846;-86
2021/07/30 10:17:09;;;;;;;;;18.80;18.80;;;;;26.71;75.67;100757.97;5135199;27;8851;-80
2021/07/30 10:19:48;;;;;;;;;21.60;21.60;;;;;26.85;74.43;100754.00;5135083;27;9686;-79
2021/07/30 10:22:19;;;;;;;;;22.20;22.20;;;;;27.07;75.89;100751.47;5116147;27;8854;-80
2021/07/30 10:24:54;;;;;;;;;22.80;22.80;;;;;27.21;74.17;100750.31;5113850;28;8835;-79
2021/07/30 10:27:56;;;;;;;;;23.60;23.00;;;;;26.88;74.26;100756.75;5113804;28;8834;-80
2021/07/30 10:30:54;;;;;;;;;25.40;25.40;;;;;26.85;74.38;100748.31;5112173;28;9654;-77
2021/07/30 10:33:50;;;;;;;;;22.40;22.40;;;;;27.01;74.83;100747.53;5113462;28;8842;-78
2021/07/30 10:36:47;;;;;;;;;26.80;26.80;;;;;27.01;75.06;100748.34;5111373;28;9024;-77
2021/07/30 10:40:12;;;;;;;;;25.20;25.20;;;;;27.02;74.78;100740.63;5113323;28;8842;-79
2021/07/30 10:43:12;;;;;;;;;25.00;25.00;;;;;27.15;73.25;100744.38;5114150;28;8851;-79
2021/07/30 10:46:05;;;;;;;;;20.00;20.00;;;;;26.74;72.16;100736.41;5122170;27;8816;-78
2021/07/30 10:48:40;;;;;;;;;18.20;18.20;;;;;26.95;73.78;100724.56;5133247;27;8840;-80
2021/07/30 10:51:36;;;;;;;;;20.60;20.60;;;;;27.20;72.80;100726.00;5128798;27;8847;-79
2021/07/30 10:54:05;;;;;;;;;23.40;23.40;;;;;27.14;72.75;100729.41;5095368;28;9603;-82
2021/07/30 10:57:01;;;;;;;;;16.80;16.80;;;;;27.45;71.19;100720.47;5114832;27;8868;-80
2021/07/30 11:00:12;;;;;;;;;20.80;20.20;;;;;27.28;71.49;100718.91;5119399;27;8832;-76
2021/07/30 11:03:07;;;;;;;;;14.40;14.40;;;;;27.75;70.15;100718.47;5133397;27;8836;-81
2021/07/30 11:06:10;;;;;;;;;19.80;19.80;;;;;28.24;69.34;100719.88;5134005;27;8939;-81
2021/07/30 11:09:05;;;;;;;;;19.00;19.00;;;;;28.74;66.67;100712.66;5133411;27;9612;-81
2021/07/30 11:12:07;;;;;;;;;18.60;18.60;;;;;28.88;67.47;100697.16;5121517;28;8843;-80
2021/07/30 11:15:09;;;;;;;;;14.60;14.60;;;;;28.96;66.90;100692.84;5113898;28;8822;-81
2021/07/30 11:18:05;;;;;;;;;18.60;18.60;;;;;29.13;65.52;100693.50;5116012;27;8820;-83
2021/07/30 11:21:01;;;;;;;;;21.80;21.40;;;;;29.44;65.41;100695.69;5125844;27;8890;-83
2021/07/30 11:23:59;;;;;;;;;16.40;16.40;;;;;29.46;63.77;100693.97;5131685;27;8939;-80
2021/07/30 11:26:56;;;;;;;;;16.20;16.20;;;;;29.38;63.78;100684.09;5112947;28;9606;-81
2021/07/30 11:29:29;;;;;;;;;16.20;16.20;;;;;29.65;64.86;100674.22;5096109;28;8870;-83
2021/07/30 11:32:25;;;;;;;;;17.00;16.40;;;;;29.77;62.68;100670.50;5116909;27;9603;-83
2021/07/30 11:35:21;;;;;;;;;21.60;20.00;;;;;30.36;63.83;100677.22;5114952;28;8846;-82
2021/07/30 11:38:17;;;;;;;;;11.40;11.00;;;;;30.55;61.51;100663.84;5120563;27;8876;-82
2021/07/30 11:41:14;;;;;;;;;16.00;16.00;;;;;30.45;60.39;100657.31;5133347;27;8920;-81
2021/07/30 11:44:10;;;;;;;;;12.80;12.80;;;;;30.62;59.01;100655.78;5132429;27;8828;-81
2021/07/30 11:47:05;;;;;;;;;11.60;11.60;;;;;30.77;57.20;100649.50;5133830;27;8828;-81
2021/07/30 11:50:06;;;;;;;;;13.80;13.80;;;;;30.85;57.30;100653.66;5131995;27;8859;-81
2021/07/30 11:53:06;;;;;;;;;14.20;14.20;;;;;31.08;57.09;100646.56;5118646;27;8847;-84
2021/07/30 11:56:04;;;;;;;;;12.80;12.80;;;;;31.23;56.43;100645.50;5124245;27;8847;-84
2021/07/30 11:58:32;;;;;;;;;12.20;12.20;;;;;31.41;56.40;100643.91;5138648;27;8847;-82
2021/07/30 12:01:31;;;;;;;;;11.40;11.40;;;;;30.21;57.85;100636.25;5136750;27;8866;-80
2021/07/30 12:04:27;;;;;;;;;10.40;10.40;;;;;30.33;54.58;100641.06;5136835;27;8819;-80
2021/07/30 12:07:40;;;;;;;;;12.20;12.20;;;;;30.77;53.31;100626.69;5141920;27;8897;-79
2021/07/30 12:10:37;;;;;;;;;8.20;8.20;;;;;30.49;53.30;100632.25;5155741;27;8825;-81
2021/07/30 12:13:33;;;;;;;;;10.20;9.60;;;;;30.06;53.80;100631.09;5144234;27;8864;-81
2021/07/30 12:16:31;;;;;;;;;10.80;10.80;;;;;29.99;54.33;100636.28;5143818;27;8928;-82
2021/07/30 12:19:31;;;;;;;;;10.60;10.20;;;;;29.65;53.58;100640.00;5156757;27;8841;-80
2021/07/30 12:22:13;;;;;;;;;9.80;9.80;;;;;29.60;54.36;100632.88;5157744;27;8833;-81
2021/07/30 12:25:16;;;;;;;;;8.80;8.80;;;;;29.23;55.25;100634.59;5141428;27;8863;-82
2021/07/30 12:28:15;;;;;;;;;8.40;8.40;;;;;29.00;56.18;100619.53;5138674;27;9588;-82
2021/07/30 12:31:15;;;;;;;;;11.00;11.00;;;;;28.99;56.71;100615.09;5136389;27;8874;-82
2021/07/30 12:34:17;;;;;;;;;10.40;10.40;;;;;28.81;56.23;100623.41;5133175;27;8839;-81
2021/07/30 12:37:12;;;;;;;;;9.00;9.00;;;;;28.99;56.49;100620.78;5148832;27;8849;-82
2021/07/30 12:39:45;;;;;;;;;9.40;9.40;;;;;28.94;57.37;100621.34;5139924;27;8823;-81
2021/07/30 12:42:42;;;;;;;;;9.80;9.80;;;;;29.22;56.98;100611.03;5122976;27;8893;-81
2021/07/30 12:45:40;;;;;;;;;11.20;10.80;;;;;29.25;56.42;100617.84;5135902;27;8815;-83
2021/07/30 12:48:49;;;;;;;;;11.60;11.60;;;;;29.30;57.05;100612.38;5135612;27;8827;-78
2021/07/30 12:51:45;;;;;;;;;9.80;9.80;;;;;29.56;57.07;100606.56;5140004;27;8852;-81
2021/07/30 12:54:41;;;;;;;;;9.00;9.00;;;;;29.85;56.12;100611.97;5157743;27;8869;-82
2021/07/30 12:57:52;;;;;;;;;12.80;12.80;;;;;30.30;54.20;100613.50;5142574;27;9585;-79
2021/07/30 13:00:50;;;;;;;;;10.60;10.60;;;;;30.99;53.88;100611.00;5137523;27;8846;-83
2021/07/30 13:03:32;;;;;;;;;9.40;9.40;;;;;31.93;51.11;100607.66;5149198;27;8852;-82
2021/07/30 13:06:21;;;;;;;;;9.40;9.40;;;;;31.85;50.51;100600.69;5155915;27;8849;-81
2021/07/30 13:08:49;;;;;;;;;9.20;9.20;;;;;31.97;49.77;100605.41;5144994;27;8831;-80
2021/07/30 13:11:19;;;;;;;;;10.20;10.20;;;;;32.63;49.78;100602.59;5128150;27;8865;-79
2021/07/30 13:14:02;;;;;;;;;11.40;11.40;;;;;33.03;48.51;100593.59;5140948;27;8858;-80